Airfield :
LOGIN :

Register | Disclaimer

   EN    FR    IT 

 










Legend :    VFR   Marginal VFR   IFR   Intensive IFR   Very Intensive IFR
Visi :
Ceiling :
>= 8 km
>= 3000ft
5 to 8 km
1000 to 3000 ft
1500m to 5 km
500 to 1000 ft
800 to 1500m
200 to 500 ft
< 800m
< 200 ft
Symbols :   Thunderstorms  Fog  Heavy snow  Heavy precipitations  Wind > 20 kt
SIGMETs :     Misc.  Thunderstorms  Icing  Turbulence  Mountain Waves  Volcanic Ashes







- Airport Elevation : 584 ft
- Download approach charts


LFPV - Villacoublay Vélizy

CURRENT METAR :
  • 211200Z AUTO 26003KT 190V320 9999 BKN022 OVC049 22/16 Q1022 NOSIG

EXPIRED METARs :
  • 211130Z AUTO 24005KT 200V290 9999 BKN022 OVC047 21/16 Q1023 NOSIG
  • 211100Z AUTO 23005KT 180V270 9999 OVC021 21/15 Q1023 NOSIG
  • 211030Z AUTO 24006KT 200V290 9999 SCT022 BKN034 OVC050 21/15 Q1023 NOSIG
  • 211000Z AUTO 24006KT 210V270 9999 BKN019 OVC050 19/14 Q1023 NOSIG
  • 210930Z AUTO 23006KT 200V260 9999 OVC018 19/14 Q1023 NOSIG
  • 210900Z AUTO 22004KT 170V260 9999 OVC021 18/13 Q1023 NOSIG

TAF TAF LFPV
Valid from the 21 at 09:00 until the 22 at 09:00 UTC


210800Z 2109/2209 22005KT 9999 BKN030
TEMPO 2110/2113 BKN015
PROB40
TEMPO 2202/2207 3000 BR
BECMG 2207/2208 CAVOK
No reported NOTAMs for that airfield.



MET'MAP, your aeronautical weather chart ! - Copyright ORBIFLY December 2007 - Disclaimer

ORBIFLY MET'MAP TEAM :

Programming & Development : Alexandra Zaïnal
Concept & Development : Baudouin d'Aumeries
Co-Development & Prog : Marc-Olivier Méhu
Technical & hardware support : Manuel Goepfert

Contact : metmap@orbifly.com




SOURCES & CREDITS :

   NOAA